Terminal Aerodrome Forecast
Issued by NWS Sterling, VA

Home | Current Version | Previous Version | Text Only | Print | Product List | Glossary On
Versions: 1 2 3 4 5 6 7 8 9 10 11 12 13 14
314
FTUS41 KLWX 251121
TAFMRB
TAF
KMRB 251121Z 2512/2612 22003KT P6SM SCT250
     FM251700 25007KT P6SM BKN100
     FM252100 29006KT P6SM BKN045
     FM260000 29007KT P6SM SCT250
     FM260300 29010KT P6SM SCT045=

USA.gov is the U.S. government's official web portal to all federal, state and local government web resources and services.